sensor_id;sensor_type;location;lat;lon;timestamp;P1;durP1;ratioP1;P2;durP2;ratioP2
55728;SDS011;41633;39.720;2.910;2023-04-07T00:02:13;8.88;;;2.58;;
55728;SDS011;41633;39.720;2.910;2023-04-07T00:04:40;7.28;;;2.47;;
55728;SDS011;41633;39.720;2.910;2023-04-07T00:07:09;9.25;;;2.95;;
55728;SDS011;41633;39.720;2.910;2023-04-07T00:09:38;7.40;;;2.70;;
55728;SDS011;41633;39.720;2.910;2023-04-07T00:12:05;7.68;;;2.72;;
55728;SDS011;41633;39.720;2.910;2023-04-07T00:14:33;9.13;;;2.42;;
55728;SDS011;41633;39.720;2.910;2023-04-07T00:17:00;8.32;;;2.40;;
55728;SDS011;41633;39.720;2.910;2023-04-07T00:19:31;8.20;;;2.38;;
55728;SDS011;41633;39.720;2.910;2023-04-07T00:21:59;8.43;;;2.20;;
55728;SDS011;41633;39.720;2.910;2023-04-07T00:24:25;10.02;;;2.38;;
55728;SDS011;41633;39.720;2.910;2023-04-07T00:26:54;8.15;;;2.33;;
55728;SDS011;41633;39.720;2.910;2023-04-07T00:29:22;9.82;;;2.38;;
55728;SDS011;41633;39.720;2.910;2023-04-07T00:31:51;8.55;;;2.22;;
55728;SDS011;41633;39.720;2.910;2023-04-07T00:34:19;7.95;;;2.03;;
55728;SDS011;41633;39.720;2.910;2023-04-07T00:36:47;8.38;;;2.20;;
55728;SDS011;41633;39.720;2.910;2023-04-07T00:39:18;7.03;;;2.20;;
55728;SDS011;41633;39.720;2.910;2023-04-07T00:41:47;8.10;;;2.50;;
55728;SDS011;41633;39.720;2.910;2023-04-07T00:44:16;7.82;;;2.42;;
55728;SDS011;41633;39.720;2.910;2023-04-07T00:46:46;8.63;;;2.40;;
55728;SDS011;41633;39.720;2.910;2023-04-07T00:49:21;8.60;;;2.47;;
55728;SDS011;41633;39.720;2.910;2023-04-07T00:51:50;7.40;;;1.80;;
55728;SDS011;41633;39.720;2.910;2023-04-07T00:54:17;9.57;;;2.38;;
55728;SDS011;41633;39.720;2.910;2023-04-07T00:56:46;7.30;;;2.17;;
55728;SDS011;41633;39.720;2.910;2023-04-07T00:59:15;9.13;;;2.10;;
55728;SDS011;41633;39.720;2.910;2023-04-07T01:05:15;8.32;;;2.35;;
55728;SDS011;41633;39.720;2.910;2023-04-07T01:07:39;7.43;;;2.08;;
55728;SDS011;41633;39.720;2.910;2023-04-07T01:10:11;8.18;;;2.28;;
55728;SDS011;41633;39.720;2.910;2023-04-07T01:12:51;7.85;;;1.90;;
55728;SDS011;41633;39.720;2.910;2023-04-07T01:15:21;8.30;;;2.22;;
55728;SDS011;41633;39.720;2.910;2023-04-07T01:17:52;8.48;;;2.35;;
55728;SDS011;41633;39.720;2.910;2023-04-07T01:20:30;6.28;;;2.00;;
55728;SDS011;41633;39.720;2.910;2023-04-07T01:23:03;5.68;;;1.67;;
55728;SDS011;41633;39.720;2.910;2023-04-07T01:31:08;9.02;;;2.20;;
55728;SDS011;41633;39.720;2.910;2023-04-07T01:33:36;7.57;;;1.92;;
55728;SDS011;41633;39.720;2.910;2023-04-07T01:36:04;7.82;;;2.28;;
55728;SDS011;41633;39.720;2.910;2023-04-07T01:38:32;7.88;;;2.05;;
55728;SDS011;41633;39.720;2.910;2023-04-07T01:41:03;6.97;;;1.88;;
55728;SDS011;41633;39.720;2.910;2023-04-07T01:43:32;9.85;;;2.50;;
55728;SDS011;41633;39.720;2.910;2023-04-07T01:46:01;4.68;;;1.60;;
55728;SDS011;41633;39.720;2.910;2023-04-07T01:48:31;6.70;;;1.58;;
55728;SDS011;41633;39.720;2.910;2023-04-07T01:50:58;7.18;;;1.50;;
55728;SDS011;41633;39.720;2.910;2023-04-07T01:53:27;6.60;;;1.75;;
55728;SDS011;41633;39.720;2.910;2023-04-07T01:55:57;4.70;;;1.60;;
55728;SDS011;41633;39.720;2.910;2023-04-07T01:58:25;5.55;;;1.50;;
55728;SDS011;41633;39.720;2.910;2023-04-07T02:00:52;8.23;;;2.00;;
55728;SDS011;41633;39.720;2.910;2023-04-07T02:03:27;6.25;;;1.75;;
55728;SDS011;41633;39.720;2.910;2023-04-07T02:06:06;6.47;;;2.38;;
55728;SDS011;41633;39.720;2.910;2023-04-07T02:08:35;9.32;;;3.00;;
55728;SDS011;41633;39.720;2.910;2023-04-07T02:11:16;9.75;;;3.38;;
55728;SDS011;41633;39.720;2.910;2023-04-07T02:13:45;9.50;;;3.88;;
55728;SDS011;41633;39.720;2.910;2023-04-07T02:16:13;8.75;;;3.58;;
55728;SDS011;41633;39.720;2.910;2023-04-07T02:18:42;8.45;;;3.15;;
55728;SDS011;41633;39.720;2.910;2023-04-07T02:21:10;8.80;;;3.17;;
55728;SDS011;41633;39.720;2.910;2023-04-07T02:23:41;10.23;;;3.08;;
55728;SDS011;41633;39.720;2.910;2023-04-07T02:26:08;10.90;;;3.50;;
55728;SDS011;41633;39.720;2.910;2023-04-07T02:28:36;8.40;;;3.13;;
55728;SDS011;41633;39.720;2.910;2023-04-07T02:31:04;8.60;;;2.72;;
55728;SDS011;41633;39.720;2.910;2023-04-07T02:33:33;6.38;;;1.95;;
55728;SDS011;41633;39.720;2.910;2023-04-07T02:36:02;7.28;;;2.20;;
55728;SDS011;41633;39.720;2.910;2023-04-07T02:38:31;6.53;;;2.00;;
55728;SDS011;41633;39.720;2.910;2023-04-07T02:41:00;6.90;;;2.00;;
55728;SDS011;41633;39.720;2.910;2023-04-07T02:43:27;6.00;;;1.80;;
55728;SDS011;41633;39.720;2.910;2023-04-07T02:45:56;6.50;;;1.75;;
55728;SDS011;41633;39.720;2.910;2023-04-07T02:48:24;5.80;;;1.88;;
55728;SDS011;41633;39.720;2.910;2023-04-07T02:50:50;6.47;;;1.60;;
55728;SDS011;41633;39.720;2.910;2023-04-07T02:53:16;7.70;;;2.00;;
55728;SDS011;41633;39.720;2.910;2023-04-07T02:55:44;6.22;;;1.55;;
55728;SDS011;41633;39.720;2.910;2023-04-07T02:58:13;6.20;;;1.77;;
55728;SDS011;41633;39.720;2.910;2023-04-07T03:00:42;5.88;;;1.52;;
55728;SDS011;41633;39.720;2.910;2023-04-07T03:03:09;5.50;;;1.40;;
55728;SDS011;41633;39.720;2.910;2023-04-07T03:05:43;4.85;;;1.50;;
55728;SDS011;41633;39.720;2.910;2023-04-07T03:08:10;4.60;;;1.40;;
55728;SDS011;41633;39.720;2.910;2023-04-07T03:10:41;6.88;;;1.70;;
55728;SDS011;41633;39.720;2.910;2023-04-07T03:13:09;5.85;;;1.73;;
55728;SDS011;41633;39.720;2.910;2023-04-07T03:15:41;5.57;;;1.77;;
55728;SDS011;41633;39.720;2.910;2023-04-07T03:18:09;4.20;;;1.30;;
55728;SDS011;41633;39.720;2.910;2023-04-07T03:20:37;5.95;;;1.67;;
55728;SDS011;41633;39.720;2.910;2023-04-07T03:23:06;4.50;;;1.50;;
55728;SDS011;41633;39.720;2.910;2023-04-07T03:25:33;5.43;;;1.40;;
55728;SDS011;41633;39.720;2.910;2023-04-07T03:28:02;5.65;;;1.55;;
55728;SDS011;41633;39.720;2.910;2023-04-07T03:30:31;4.80;;;1.30;;
55728;SDS011;41633;39.720;2.910;2023-04-07T03:32:59;6.80;;;1.50;;
55728;SDS011;41633;39.720;2.910;2023-04-07T03:35:26;5.50;;;1.80;;
55728;SDS011;41633;39.720;2.910;2023-04-07T03:37:53;6.07;;;1.70;;
55728;SDS011;41633;39.720;2.910;2023-04-07T03:40:22;7.93;;;1.77;;
55728;SDS011;41633;39.720;2.910;2023-04-07T03:42:50;6.25;;;1.80;;
55728;SDS011;41633;39.720;2.910;2023-04-07T03:45:19;5.25;;;1.58;;
55728;SDS011;41633;39.720;2.910;2023-04-07T03:47:46;4.50;;;1.30;;
55728;SDS011;41633;39.720;2.910;2023-04-07T03:50:14;9.38;;;2.20;;
55728;SDS011;41633;39.720;2.910;2023-04-07T03:52:40;6.22;;;2.08;;
55728;SDS011;41633;39.720;2.910;2023-04-07T03:55:09;10.48;;;2.80;;
55728;SDS011;41633;39.720;2.910;2023-04-07T03:57:36;8.50;;;3.17;;
55728;SDS011;41633;39.720;2.910;2023-04-07T04:00:05;10.35;;;3.60;;
55728;SDS011;41633;39.720;2.910;2023-04-07T04:02:33;10.32;;;3.28;;
55728;SDS011;41633;39.720;2.910;2023-04-07T04:05:00;9.52;;;3.05;;
55728;SDS011;41633;39.720;2.910;2023-04-07T04:07:29;8.25;;;3.10;;
55728;SDS011;41633;39.720;2.910;2023-04-07T04:09:58;8.57;;;2.78;;
55728;SDS011;41633;39.720;2.910;2023-04-07T04:12:27;9.02;;;2.63;;
55728;SDS011;41633;39.720;2.910;2023-04-07T04:14:54;8.15;;;2.80;;
55728;SDS011;41633;39.720;2.910;2023-04-07T04:17:23;7.70;;;2.70;;
55728;SDS011;41633;39.720;2.910;2023-04-07T04:19:53;9.07;;;2.67;;
55728;SDS011;41633;39.720;2.910;2023-04-07T04:27:14;6.15;;;2.25;;
55728;SDS011;41633;39.720;2.910;2023-04-07T04:29:40;8.50;;;2.00;;
55728;SDS011;41633;39.720;2.910;2023-04-07T04:32:07;7.50;;;2.17;;
55728;SDS011;41633;39.720;2.910;2023-04-07T04:34:35;8.52;;;2.10;;
55728;SDS011;41633;39.720;2.910;2023-04-07T04:37:04;6.40;;;1.75;;
55728;SDS011;41633;39.720;2.910;2023-04-07T04:39:36;5.65;;;1.80;;
55728;SDS011;41633;39.720;2.910;2023-04-07T04:42:04;6.95;;;1.75;;
55728;SDS011;41633;39.720;2.910;2023-04-07T04:44:31;9.48;;;2.67;;
55728;SDS011;41633;39.720;2.910;2023-04-07T04:46:59;6.75;;;2.00;;
55728;SDS011;41633;39.720;2.910;2023-04-07T04:49:26;14.02;;;2.47;;
55728;SDS011;41633;39.720;2.910;2023-04-07T04:51:54;14.30;;;2.90;;
55728;SDS011;41633;39.720;2.910;2023-04-07T04:54:21;13.07;;;2.72;;
55728;SDS011;41633;39.720;2.910;2023-04-07T04:56:50;8.90;;;2.00;;
55728;SDS011;41633;39.720;2.910;2023-04-07T04:59:17;9.32;;;2.10;;
55728;SDS011;41633;39.720;2.910;2023-04-07T05:01:45;8.48;;;2.10;;
55728;SDS011;41633;39.720;2.910;2023-04-07T05:04:12;8.05;;;1.70;;
55728;SDS011;41633;39.720;2.910;2023-04-07T05:06:40;5.93;;;1.70;;
55728;SDS011;41633;39.720;2.910;2023-04-07T05:09:07;5.57;;;1.70;;
55728;SDS011;41633;39.720;2.910;2023-04-07T05:11:36;6.88;;;2.08;;
55728;SDS011;41633;39.720;2.910;2023-04-07T05:14:05;5.85;;;1.70;;
55728;SDS011;41633;39.720;2.910;2023-04-07T05:16:32;7.28;;;1.90;;
55728;SDS011;41633;39.720;2.910;2023-04-07T05:18:58;5.25;;;1.67;;
55728;SDS011;41633;39.720;2.910;2023-04-07T05:21:27;5.68;;;1.60;;
55728;SDS011;41633;39.720;2.910;2023-04-07T05:23:55;5.80;;;1.50;;
55728;SDS011;41633;39.720;2.910;2023-04-07T05:26:21;6.40;;;1.40;;
55728;SDS011;41633;39.720;2.910;2023-04-07T05:28:49;6.22;;;1.52;;
55728;SDS011;41633;39.720;2.910;2023-04-07T05:33:43;6.07;;;1.70;;
55728;SDS011;41633;39.720;2.910;2023-04-07T05:36:11;9.40;;;2.17;;
55728;SDS011;41633;39.720;2.910;2023-04-07T05:38:39;6.53;;;1.63;;
55728;SDS011;41633;39.720;2.910;2023-04-07T05:41:07;5.72;;;1.77;;
55728;SDS011;41633;39.720;2.910;2023-04-07T05:43:36;5.65;;;1.50;;
55728;SDS011;41633;39.720;2.910;2023-04-07T05:46:04;8.07;;;1.92;;
55728;SDS011;41633;39.720;2.910;2023-04-07T05:48:32;7.80;;;2.38;;
55728;SDS011;41633;39.720;2.910;2023-04-07T05:50:59;8.95;;;3.30;;
55728;SDS011;41633;39.720;2.910;2023-04-07T05:53:27;9.80;;;2.80;;
55728;SDS011;41633;39.720;2.910;2023-04-07T05:55:54;9.82;;;3.58;;
55728;SDS011;41633;39.720;2.910;2023-04-07T05:58:22;9.25;;;3.35;;
55728;SDS011;41633;39.720;2.910;2023-04-07T06:00:49;15.88;;;4.45;;
55728;SDS011;41633;39.720;2.910;2023-04-07T06:03:18;9.77;;;3.30;;
55728;SDS011;41633;39.720;2.910;2023-04-07T06:05:47;11.73;;;3.05;;
55728;SDS011;41633;39.720;2.910;2023-04-07T06:08:25;13.82;;;4.10;;
55728;SDS011;41633;39.720;2.910;2023-04-07T06:10:52;8.73;;;2.63;;
55728;SDS011;41633;39.720;2.910;2023-04-07T06:13:20;8.48;;;2.70;;
55728;SDS011;41633;39.720;2.910;2023-04-07T06:15:48;6.68;;;2.40;;
55728;SDS011;41633;39.720;2.910;2023-04-07T06:18:16;8.20;;;1.95;;
55728;SDS011;41633;39.720;2.910;2023-04-07T06:20:43;6.95;;;2.00;;
55728;SDS011;41633;39.720;2.910;2023-04-07T06:23:11;7.75;;;2.15;;
55728;SDS011;41633;39.720;2.910;2023-04-07T06:26:01;8.52;;;3.13;;
55728;SDS011;41633;39.720;2.910;2023-04-07T06:28:30;6.53;;;2.35;;
55728;SDS011;41633;39.720;2.910;2023-04-07T06:30:57;8.73;;;2.70;;
55728;SDS011;41633;39.720;2.910;2023-04-07T06:33:26;7.47;;;2.25;;
55728;SDS011;41633;39.720;2.910;2023-04-07T06:35:53;9.80;;;2.17;;
55728;SDS011;41633;39.720;2.910;2023-04-07T06:38:22;8.73;;;2.22;;
55728;SDS011;41633;39.720;2.910;2023-04-07T06:40:52;8.73;;;2.65;;
55728;SDS011;41633;39.720;2.910;2023-04-07T06:43:18;7.55;;;2.40;;
55728;SDS011;41633;39.720;2.910;2023-04-07T06:45:47;5.97;;;1.70;;
55728;SDS011;41633;39.720;2.910;2023-04-07T06:48:13;7.68;;;1.98;;
55728;SDS011;41633;39.720;2.910;2023-04-07T06:50:41;5.95;;;1.98;;
55728;SDS011;41633;39.720;2.910;2023-04-07T06:53:10;8.93;;;2.30;;
55728;SDS011;41633;39.720;2.910;2023-04-07T06:55:38;6.93;;;2.08;;
55728;SDS011;41633;39.720;2.910;2023-04-07T06:58:07;6.30;;;2.00;;
55728;SDS011;41633;39.720;2.910;2023-04-07T07:00:34;7.50;;;2.25;;
55728;SDS011;41633;39.720;2.910;2023-04-07T07:03:02;10.32;;;2.20;;
55728;SDS011;41633;39.720;2.910;2023-04-07T07:05:29;8.13;;;2.10;;
55728;SDS011;41633;39.720;2.910;2023-04-07T07:07:56;8.20;;;2.65;;
55728;SDS011;41633;39.720;2.910;2023-04-07T07:10:23;9.60;;;2.40;;
55728;SDS011;41633;39.720;2.910;2023-04-07T07:12:51;8.77;;;2.40;;
55728;SDS011;41633;39.720;2.910;2023-04-07T07:15:20;9.27;;;2.55;;
55728;SDS011;41633;39.720;2.910;2023-04-07T07:17:49;12.10;;;2.55;;
55728;SDS011;41633;39.720;2.910;2023-04-07T07:20:16;6.70;;;2.13;;
55728;SDS011;41633;39.720;2.910;2023-04-07T07:22:44;7.90;;;1.83;;
55728;SDS011;41633;39.720;2.910;2023-04-07T07:25:11;9.40;;;2.03;;
55728;SDS011;41633;39.720;2.910;2023-04-07T07:27:39;7.95;;;1.92;;
55728;SDS011;41633;39.720;2.910;2023-04-07T07:30:06;10.93;;;2.40;;
55728;SDS011;41633;39.720;2.910;2023-04-07T07:32:34;10.75;;;2.15;;
55728;SDS011;41633;39.720;2.910;2023-04-07T07:35:02;8.50;;;2.10;;
55728;SDS011;41633;39.720;2.910;2023-04-07T07:37:31;9.15;;;2.05;;
55728;SDS011;41633;39.720;2.910;2023-04-07T07:40:10;10.77;;;1.90;;
55728;SDS011;41633;39.720;2.910;2023-04-07T07:42:37;5.53;;;1.70;;
55728;SDS011;41633;39.720;2.910;2023-04-07T07:45:06;9.18;;;2.03;;
55728;SDS011;41633;39.720;2.910;2023-04-07T07:47:34;7.40;;;1.63;;
55728;SDS011;41633;39.720;2.910;2023-04-07T07:50:03;7.20;;;1.92;;
55728;SDS011;41633;39.720;2.910;2023-04-07T07:52:32;8.95;;;1.92;;
55728;SDS011;41633;39.720;2.910;2023-04-07T07:55:00;5.10;;;1.45;;
55728;SDS011;41633;39.720;2.910;2023-04-07T07:57:28;5.03;;;1.30;;
55728;SDS011;41633;39.720;2.910;2023-04-07T07:59:57;5.40;;;1.40;;
55728;SDS011;41633;39.720;2.910;2023-04-07T08:02:24;5.93;;;1.60;;
55728;SDS011;41633;39.720;2.910;2023-04-07T08:04:56;5.00;;;1.35;;
55728;SDS011;41633;39.720;2.910;2023-04-07T08:07:25;4.30;;;1.30;;
55728;SDS011;41633;39.720;2.910;2023-04-07T08:09:54;6.18;;;1.70;;
55728;SDS011;41633;39.720;2.910;2023-04-07T08:12:22;7.68;;;2.40;;
55728;SDS011;41633;39.720;2.910;2023-04-07T08:14:51;10.18;;;3.42;;
55728;SDS011;41633;39.720;2.910;2023-04-07T08:17:19;13.60;;;4.25;;
55728;SDS011;41633;39.720;2.910;2023-04-07T08:19:47;10.40;;;3.83;;
55728;SDS011;41633;39.720;2.910;2023-04-07T08:22:15;9.45;;;3.95;;
55728;SDS011;41633;39.720;2.910;2023-04-07T08:24:45;10.25;;;4.53;;
55728;SDS011;41633;39.720;2.910;2023-04-07T08:27:12;9.32;;;3.60;;
55728;SDS011;41633;39.720;2.910;2023-04-07T08:30:07;7.97;;;3.05;;
55728;SDS011;41633;39.720;2.910;2023-04-07T08:32:37;7.03;;;2.60;;
55728;SDS011;41633;39.720;2.910;2023-04-07T08:35:07;8.27;;;2.92;;
55728;SDS011;41633;39.720;2.910;2023-04-07T08:37:34;10.95;;;4.00;;
55728;SDS011;41633;39.720;2.910;2023-04-07T08:40:03;8.65;;;3.67;;
55728;SDS011;41633;39.720;2.910;2023-04-07T08:42:32;9.90;;;4.00;;
55728;SDS011;41633;39.720;2.910;2023-04-07T08:45:04;10.45;;;3.38;;
55728;SDS011;41633;39.720;2.910;2023-04-07T08:47:34;10.73;;;3.80;;
55728;SDS011;41633;39.720;2.910;2023-04-07T08:50:05;8.80;;;3.20;;
55728;SDS011;41633;39.720;2.910;2023-04-07T08:52:36;8.73;;;3.15;;
55728;SDS011;41633;39.720;2.910;2023-04-07T08:55:06;10.63;;;2.88;;
55728;SDS011;41633;39.720;2.910;2023-04-07T08:57:33;8.05;;;2.53;;
55728;SDS011;41633;39.720;2.910;2023-04-07T09:00:02;10.48;;;1.90;;
55728;SDS011;41633;39.720;2.910;2023-04-07T09:02:36;7.00;;;1.58;;
55728;SDS011;41633;39.720;2.910;2023-04-07T09:05:04;5.57;;;1.70;;
55728;SDS011;41633;39.720;2.910;2023-04-07T09:07:36;5.70;;;1.40;;
55728;SDS011;41633;39.720;2.910;2023-04-07T09:10:19;5.72;;;1.50;;
55728;SDS011;41633;39.720;2.910;2023-04-07T09:12:48;4.15;;;1.30;;
55728;SDS011;41633;39.720;2.910;2023-04-07T09:15:16;5.47;;;1.20;;
55728;SDS011;41633;39.720;2.910;2023-04-07T09:17:44;3.75;;;1.13;;
55728;SDS011;41633;39.720;2.910;2023-04-07T09:20:13;4.20;;;0.90;;
55728;SDS011;41633;39.720;2.910;2023-04-07T09:22:42;4.63;;;1.33;;
55728;SDS011;41633;39.720;2.910;2023-04-07T09:25:16;7.35;;;1.50;;
55728;SDS011;41633;39.720;2.910;2023-04-07T09:30:29;5.38;;;1.60;;
55728;SDS011;41633;39.720;2.910;2023-04-07T09:32:55;5.68;;;1.50;;
55728;SDS011;41633;39.720;2.910;2023-04-07T09:35:23;4.93;;;1.48;;
55728;SDS011;41633;39.720;2.910;2023-04-07T09:38:05;5.30;;;1.58;;
55728;SDS011;41633;39.720;2.910;2023-04-07T09:40:32;4.60;;;1.40;;
55728;SDS011;41633;39.720;2.910;2023-04-07T09:43:00;6.45;;;1.55;;
55728;SDS011;41633;39.720;2.910;2023-04-07T09:45:29;5.95;;;1.45;;
55728;SDS011;41633;39.720;2.910;2023-04-07T09:47:57;4.78;;;1.33;;
55728;SDS011;41633;39.720;2.910;2023-04-07T09:50:32;5.43;;;1.30;;
55728;SDS011;41633;39.720;2.910;2023-04-07T09:53:02;6.53;;;1.70;;
55728;SDS011;41633;39.720;2.910;2023-04-07T09:55:31;7.60;;;1.85;;
55728;SDS011;41633;39.720;2.910;2023-04-07T09:57:59;6.05;;;1.38;;
55728;SDS011;41633;39.720;2.910;2023-04-07T10:00:27;5.72;;;1.50;;
55728;SDS011;41633;39.720;2.910;2023-04-07T10:02:55;3.67;;;1.10;;
55728;SDS011;41633;39.720;2.910;2023-04-07T10:05:24;5.78;;;1.35;;
55728;SDS011;41633;39.720;2.910;2023-04-07T10:07:52;4.85;;;1.10;;
55728;SDS011;41633;39.720;2.910;2023-04-07T10:10:21;5.95;;;1.30;;
55728;SDS011;41633;39.720;2.910;2023-04-07T10:12:50;4.70;;;1.25;;
55728;SDS011;41633;39.720;2.910;2023-04-07T10:15:20;5.22;;;1.45;;
55728;SDS011;41633;39.720;2.910;2023-04-07T10:17:47;4.55;;;1.20;;
55728;SDS011;41633;39.720;2.910;2023-04-07T10:20:16;4.65;;;1.30;;
55728;SDS011;41633;39.720;2.910;2023-04-07T10:22:45;4.80;;;1.00;;
55728;SDS011;41633;39.720;2.910;2023-04-07T10:25:15;5.03;;;1.05;;
55728;SDS011;41633;39.720;2.910;2023-04-07T10:27:51;4.97;;;1.05;;
55728;SDS011;41633;39.720;2.910;2023-04-07T10:30:24;4.03;;;1.13;;
55728;SDS011;41633;39.720;2.910;2023-04-07T10:32:53;7.50;;;1.60;;
55728;SDS011;41633;39.720;2.910;2023-04-07T10:35:20;4.78;;;1.30;;
55728;SDS011;41633;39.720;2.910;2023-04-07T10:40:33;3.78;;;1.00;;
55728;SDS011;41633;39.720;2.910;2023-04-07T10:43:02;3.47;;;0.90;;
55728;SDS011;41633;39.720;2.910;2023-04-07T10:48:21;3.33;;;1.08;;
55728;SDS011;41633;39.720;2.910;2023-04-07T10:51:21;4.35;;;1.02;;
55728;SDS011;41633;39.720;2.910;2023-04-07T10:56:50;5.60;;;1.10;;
55728;SDS011;41633;39.720;2.910;2023-04-07T10:59:17;5.05;;;1.13;;
55728;SDS011;41633;39.720;2.910;2023-04-07T11:02:38;4.35;;;1.05;;
55728;SDS011;41633;39.720;2.910;2023-04-07T11:04:44;4.00;;;0.98;;
55728;SDS011;41633;39.720;2.910;2023-04-07T11:07:13;5.00;;;1.30;;
55728;SDS011;41633;39.720;2.910;2023-04-07T11:09:41;5.68;;;1.30;;
55728;SDS011;41633;39.720;2.910;2023-04-07T11:12:21;3.50;;;1.05;;
55728;SDS011;41633;39.720;2.910;2023-04-07T11:14:51;5.13;;;1.23;;
55728;SDS011;41633;39.720;2.910;2023-04-07T11:17:20;4.78;;;1.20;;
55728;SDS011;41633;39.720;2.910;2023-04-07T11:19:51;5.70;;;1.42;;
55728;SDS011;41633;39.720;2.910;2023-04-07T11:22:18;4.35;;;1.05;;
55728;SDS011;41633;39.720;2.910;2023-04-07T11:24:49;11.07;;;1.77;;
55728;SDS011;41633;39.720;2.910;2023-04-07T11:27:15;4.68;;;1.00;;
55728;SDS011;41633;39.720;2.910;2023-04-07T11:29:43;4.25;;;1.08;;
55728;SDS011;41633;39.720;2.910;2023-04-07T11:32:09;6.57;;;1.00;;
55728;SDS011;41633;39.720;2.910;2023-04-07T11:34:38;6.15;;;1.10;;
55728;SDS011;41633;39.720;2.910;2023-04-07T11:37:22;8.25;;;1.55;;
55728;SDS011;41633;39.720;2.910;2023-04-07T11:39:53;6.82;;;1.55;;
55728;SDS011;41633;39.720;2.910;2023-04-07T11:42:34;4.80;;;1.10;;
55728;SDS011;41633;39.720;2.910;2023-04-07T11:45:02;5.05;;;0.90;;
55728;SDS011;41633;39.720;2.910;2023-04-07T11:47:38;4.55;;;1.08;;
55728;SDS011;41633;39.720;2.910;2023-04-07T11:50:06;5.75;;;1.10;;
55728;SDS011;41633;39.720;2.910;2023-04-07T11:52:45;5.70;;;1.17;;
55728;SDS011;41633;39.720;2.910;2023-04-07T11:55:19;3.15;;;0.85;;
55728;SDS011;41633;39.720;2.910;2023-04-07T11:57:48;3.85;;;1.00;;
55728;SDS011;41633;39.720;2.910;2023-04-07T12:00:19;3.47;;;0.88;;
55728;SDS011;41633;39.720;2.910;2023-04-07T12:02:47;4.00;;;0.80;;
55728;SDS011;41633;39.720;2.910;2023-04-07T12:05:14;2.40;;;0.63;;
55728;SDS011;41633;39.720;2.910;2023-04-07T12:07:51;5.95;;;1.50;;
55728;SDS011;41633;39.720;2.910;2023-04-07T12:10:22;3.90;;;1.20;;
55728;SDS011;41633;39.720;2.910;2023-04-07T12:12:52;5.75;;;1.90;;
55728;SDS011;41633;39.720;2.910;2023-04-07T12:15:19;8.13;;;1.10;;
55728;SDS011;41633;39.720;2.910;2023-04-07T12:17:47;4.00;;;1.10;;
55728;SDS011;41633;39.720;2.910;2023-04-07T12:20:14;3.33;;;0.80;;
55728;SDS011;41633;39.720;2.910;2023-04-07T12:22:42;6.05;;;0.93;;
55728;SDS011;41633;39.720;2.910;2023-04-07T12:25:09;3.42;;;0.60;;
55728;SDS011;41633;39.720;2.910;2023-04-07T12:27:36;5.32;;;0.80;;
55728;SDS011;41633;39.720;2.910;2023-04-07T12:30:04;3.15;;;0.90;;
55728;SDS011;41633;39.720;2.910;2023-04-07T12:32:31;4.07;;;0.88;;
55728;SDS011;41633;39.720;2.910;2023-04-07T12:34:59;3.90;;;0.80;;
55728;SDS011;41633;39.720;2.910;2023-04-07T12:37:27;5.00;;;0.80;;
55728;SDS011;41633;39.720;2.910;2023-04-07T12:39:54;4.70;;;1.10;;
55728;SDS011;41633;39.720;2.910;2023-04-07T12:42:22;2.10;;;0.68;;
55728;SDS011;41633;39.720;2.910;2023-04-07T12:44:49;3.33;;;0.95;;
55728;SDS011;41633;39.720;2.910;2023-04-07T12:47:17;3.97;;;1.00;;
55728;SDS011;41633;39.720;2.910;2023-04-07T12:49:44;3.65;;;0.90;;
55728;SDS011;41633;39.720;2.910;2023-04-07T12:52:11;2.80;;;0.70;;
55728;SDS011;41633;39.720;2.910;2023-04-07T12:54:39;4.13;;;1.40;;
55728;SDS011;41633;39.720;2.910;2023-04-07T12:57:08;4.88;;;1.50;;
55728;SDS011;41633;39.720;2.910;2023-04-07T12:59:35;5.85;;;1.85;;
55728;SDS011;41633;39.720;2.910;2023-04-07T13:02:03;4.78;;;1.48;;
55728;SDS011;41633;39.720;2.910;2023-04-07T13:04:31;3.53;;;1.17;;
55728;SDS011;41633;39.720;2.910;2023-04-07T13:07:01;5.25;;;1.48;;
55728;SDS011;41633;39.720;2.910;2023-04-07T13:09:28;6.82;;;1.60;;
55728;SDS011;41633;39.720;2.910;2023-04-07T13:11:56;5.50;;;1.63;;
55728;SDS011;41633;39.720;2.910;2023-04-07T13:14:22;6.75;;;1.50;;
55728;SDS011;41633;39.720;2.910;2023-04-07T13:16:50;3.90;;;1.38;;
55728;SDS011;41633;39.720;2.910;2023-04-07T13:19:17;5.43;;;1.30;;
55728;SDS011;41633;39.720;2.910;2023-04-07T13:21:45;2.72;;;0.98;;
55728;SDS011;41633;39.720;2.910;2023-04-07T13:24:12;4.78;;;1.00;;
55728;SDS011;41633;39.720;2.910;2023-04-07T13:26:39;4.25;;;1.10;;
55728;SDS011;41633;39.720;2.910;2023-04-07T13:29:07;4.43;;;1.15;;
55728;SDS011;41633;39.720;2.910;2023-04-07T13:31:35;6.13;;;1.10;;
55728;SDS011;41633;39.720;2.910;2023-04-07T13:34:02;4.82;;;1.35;;
55728;SDS011;41633;39.720;2.910;2023-04-07T13:36:30;4.35;;;1.00;;
55728;SDS011;41633;39.720;2.910;2023-04-07T13:38:56;4.93;;;1.25;;
55728;SDS011;41633;39.720;2.910;2023-04-07T13:41:24;3.83;;;1.08;;
55728;SDS011;41633;39.720;2.910;2023-04-07T13:43:51;6.30;;;1.05;;
55728;SDS011;41633;39.720;2.910;2023-04-07T13:46:18;5.63;;;0.90;;
55728;SDS011;41633;39.720;2.910;2023-04-07T13:48:45;3.58;;;1.00;;
55728;SDS011;41633;39.720;2.910;2023-04-07T13:51:13;3.63;;;0.98;;
55728;SDS011;41633;39.720;2.910;2023-04-07T13:53:40;3.75;;;0.90;;
55728;SDS011;41633;39.720;2.910;2023-04-07T13:56:08;4.07;;;0.90;;
55728;SDS011;41633;39.720;2.910;2023-04-07T13:58:38;6.30;;;1.30;;
55728;SDS011;41633;39.720;2.910;2023-04-07T14:01:06;5.15;;;1.10;;
55728;SDS011;41633;39.720;2.910;2023-04-07T14:03:34;4.38;;;1.00;;
55728;SDS011;41633;39.720;2.910;2023-04-07T14:06:03;5.72;;;1.45;;
55728;SDS011;41633;39.720;2.910;2023-04-07T14:08:30;3.78;;;1.00;;
55728;SDS011;41633;39.720;2.910;2023-04-07T14:10:57;5.32;;;1.40;;
55728;SDS011;41633;39.720;2.910;2023-04-07T14:13:25;5.40;;;1.33;;
55728;SDS011;41633;39.720;2.910;2023-04-07T14:15:52;4.25;;;1.17;;
55728;SDS011;41633;39.720;2.910;2023-04-07T14:18:21;4.85;;;1.20;;
55728;SDS011;41633;39.720;2.910;2023-04-07T14:20:49;3.35;;;0.75;;
55728;SDS011;41633;39.720;2.910;2023-04-07T14:23:15;2.95;;;1.10;;
55728;SDS011;41633;39.720;2.910;2023-04-07T14:25:43;5.07;;;0.95;;
55728;SDS011;41633;39.720;2.910;2023-04-07T14:28:10;3.55;;;1.00;;
55728;SDS011;41633;39.720;2.910;2023-04-07T14:30:37;3.00;;;0.90;;
55728;SDS011;41633;39.720;2.910;2023-04-07T14:33:05;5.65;;;1.50;;
55728;SDS011;41633;39.720;2.910;2023-04-07T14:35:35;6.25;;;1.60;;
55728;SDS011;41633;39.720;2.910;2023-04-07T14:38:04;4.53;;;1.30;;
55728;SDS011;41633;39.720;2.910;2023-04-07T14:40:31;7.00;;;1.30;;
55728;SDS011;41633;39.720;2.910;2023-04-07T14:42:59;6.60;;;2.45;;
55728;SDS011;41633;39.720;2.910;2023-04-07T14:45:26;7.80;;;3.28;;
55728;SDS011;41633;39.720;2.910;2023-04-07T14:47:54;5.82;;;1.70;;
55728;SDS011;41633;39.720;2.910;2023-04-07T14:50:21;6.03;;;1.20;;
55728;SDS011;41633;39.720;2.910;2023-04-07T14:52:49;4.38;;;1.10;;
55728;SDS011;41633;39.720;2.910;2023-04-07T14:55:16;5.90;;;1.40;;
55728;SDS011;41633;39.720;2.910;2023-04-07T14:57:43;5.13;;;1.58;;
55728;SDS011;41633;39.720;2.910;2023-04-07T15:00:11;5.72;;;1.80;;
55728;SDS011;41633;39.720;2.910;2023-04-07T15:02:38;7.88;;;2.63;;
55728;SDS011;41633;39.720;2.910;2023-04-07T15:05:06;6.25;;;1.90;;
55728;SDS011;41633;39.720;2.910;2023-04-07T15:07:33;5.70;;;1.60;;
55728;SDS011;41633;39.720;2.910;2023-04-07T15:10:01;5.00;;;1.50;;
55728;SDS011;41633;39.720;2.910;2023-04-07T15:12:29;6.00;;;2.00;;
55728;SDS011;41633;39.720;2.910;2023-04-07T15:14:57;7.00;;;1.05;;
55728;SDS011;41633;39.720;2.910;2023-04-07T15:17:24;2.85;;;1.10;;
55728;SDS011;41633;39.720;2.910;2023-04-07T15:19:52;4.05;;;1.20;;
55728;SDS011;41633;39.720;2.910;2023-04-07T15:22:19;4.55;;;1.05;;
55728;SDS011;41633;39.720;2.910;2023-04-07T15:24:46;4.85;;;1.50;;